sensor_id;sensor_type;location;lat;lon;timestamp;P1;durP1;ratioP1;P2;durP2;ratioP2
44358;SDS011;30077;52.474;13.326;2023-04-19T00:03:56;13.20;;;5.40;;
44358;SDS011;30077;52.474;13.326;2023-04-19T00:08:57;13.68;;;4.93;;
44358;SDS011;30077;52.474;13.326;2023-04-19T00:13:58;11.50;;;4.90;;
44358;SDS011;30077;52.474;13.326;2023-04-19T00:18:58;10.75;;;4.88;;
44358;SDS011;30077;52.474;13.326;2023-04-19T00:24:00;9.38;;;5.00;;
44358;SDS011;30077;52.474;13.326;2023-04-19T00:34:02;9.32;;;4.32;;
44358;SDS011;30077;52.474;13.326;2023-04-19T00:39:03;10.73;;;4.88;;
44358;SDS011;30077;52.474;13.326;2023-04-19T00:44:03;9.05;;;4.20;;
44358;SDS011;30077;52.474;13.326;2023-04-19T00:49:05;8.23;;;4.65;;
44358;SDS011;30077;52.474;13.326;2023-04-19T00:54:06;10.05;;;4.40;;
44358;SDS011;30077;52.474;13.326;2023-04-19T00:59:07;9.13;;;4.20;;
44358;SDS011;30077;52.474;13.326;2023-04-19T01:04:08;7.18;;;3.53;;
44358;SDS011;30077;52.474;13.326;2023-04-19T01:09:09;11.23;;;4.40;;
44358;SDS011;30077;52.474;13.326;2023-04-19T01:14:10;7.00;;;4.20;;
44358;SDS011;30077;52.474;13.326;2023-04-19T01:19:11;8.88;;;3.97;;
44358;SDS011;30077;52.474;13.326;2023-04-19T01:24:11;7.32;;;3.80;;
44358;SDS011;30077;52.474;13.326;2023-04-19T01:29:12;6.97;;;4.22;;
44358;SDS011;30077;52.474;13.326;2023-04-19T01:34:13;9.40;;;4.18;;
44358;SDS011;30077;52.474;13.326;2023-04-19T01:39:13;5.70;;;3.72;;
44358;SDS011;30077;52.474;13.326;2023-04-19T01:44:15;8.07;;;4.20;;
44358;SDS011;30077;52.474;13.326;2023-04-19T01:49:15;7.70;;;4.15;;
44358;SDS011;30077;52.474;13.326;2023-04-19T01:54:16;7.88;;;3.88;;
44358;SDS011;30077;52.474;13.326;2023-04-19T01:59:16;10.07;;;4.50;;
44358;SDS011;30077;52.474;13.326;2023-04-19T02:04:19;8.95;;;4.78;;
44358;SDS011;30077;52.474;13.326;2023-04-19T02:09:21;7.65;;;3.75;;
44358;SDS011;30077;52.474;13.326;2023-04-19T02:14:22;7.63;;;3.75;;
44358;SDS011;30077;52.474;13.326;2023-04-19T02:19:22;6.70;;;3.85;;
44358;SDS011;30077;52.474;13.326;2023-04-19T02:24:23;8.13;;;4.40;;
44358;SDS011;30077;52.474;13.326;2023-04-19T02:29:24;11.18;;;4.70;;
44358;SDS011;30077;52.474;13.326;2023-04-19T02:34:26;12.95;;;4.28;;
44358;SDS011;30077;52.474;13.326;2023-04-19T02:39:27;6.78;;;4.10;;
44358;SDS011;30077;52.474;13.326;2023-04-19T02:44:28;9.50;;;3.92;;
44358;SDS011;30077;52.474;13.326;2023-04-19T02:49:29;9.20;;;4.05;;
44358;SDS011;30077;52.474;13.326;2023-04-19T02:54:33;9.73;;;3.90;;
44358;SDS011;30077;52.474;13.326;2023-04-19T02:59:34;6.47;;;3.85;;
44358;SDS011;30077;52.474;13.326;2023-04-19T03:04:34;8.50;;;3.70;;
44358;SDS011;30077;52.474;13.326;2023-04-19T03:09:38;8.65;;;3.78;;
44358;SDS011;30077;52.474;13.326;2023-04-19T03:14:39;7.50;;;3.53;;
44358;SDS011;30077;52.474;13.326;2023-04-19T03:19:40;10.05;;;3.60;;
44358;SDS011;30077;52.474;13.326;2023-04-19T03:24:41;10.52;;;3.80;;
44358;SDS011;30077;52.474;13.326;2023-04-19T03:29:41;9.18;;;3.60;;
44358;SDS011;30077;52.474;13.326;2023-04-19T03:34:42;8.27;;;3.72;;
44358;SDS011;30077;52.474;13.326;2023-04-19T03:39:43;7.55;;;3.55;;
44358;SDS011;30077;52.474;13.326;2023-04-19T03:44:43;6.38;;;3.28;;
44358;SDS011;30077;52.474;13.326;2023-04-19T03:49:44;14.02;;;4.13;;
44358;SDS011;30077;52.474;13.326;2023-04-19T03:54:45;5.80;;;3.80;;
44358;SDS011;30077;52.474;13.326;2023-04-19T03:59:45;10.38;;;4.07;;
44358;SDS011;30077;52.474;13.326;2023-04-19T04:04:51;10.70;;;4.10;;
44358;SDS011;30077;52.474;13.326;2023-04-19T04:09:53;16.48;;;4.97;;
44358;SDS011;30077;52.474;13.326;2023-04-19T04:14:54;6.38;;;4.13;;
44358;SDS011;30077;52.474;13.326;2023-04-19T04:19:55;7.82;;;3.72;;
44358;SDS011;30077;52.474;13.326;2023-04-19T04:24:55;11.07;;;4.40;;
44358;SDS011;30077;52.474;13.326;2023-04-19T04:29:57;10.23;;;3.95;;
44358;SDS011;30077;52.474;13.326;2023-04-19T04:34:57;12.30;;;4.10;;
44358;SDS011;30077;52.474;13.326;2023-04-19T04:39:58;7.50;;;3.90;;
44358;SDS011;30077;52.474;13.326;2023-04-19T04:45:00;6.45;;;3.75;;
44358;SDS011;30077;52.474;13.326;2023-04-19T04:50:01;9.63;;;4.00;;
44358;SDS011;30077;52.474;13.326;2023-04-19T04:55:02;7.90;;;4.18;;
44358;SDS011;30077;52.474;13.326;2023-04-19T05:00:04;5.70;;;3.72;;
44358;SDS011;30077;52.474;13.326;2023-04-19T05:05:06;12.27;;;4.30;;
44358;SDS011;30077;52.474;13.326;2023-04-19T05:10:10;9.85;;;3.97;;
44358;SDS011;30077;52.474;13.326;2023-04-19T05:15:10;10.30;;;4.38;;
44358;SDS011;30077;52.474;13.326;2023-04-19T05:20:11;8.40;;;3.90;;
44358;SDS011;30077;52.474;13.326;2023-04-19T05:25:12;10.48;;;4.00;;
44358;SDS011;30077;52.474;13.326;2023-04-19T05:30:14;13.80;;;4.50;;
44358;SDS011;30077;52.474;13.326;2023-04-19T05:35:15;12.73;;;4.38;;
44358;SDS011;30077;52.474;13.326;2023-04-19T05:40:15;11.35;;;4.63;;
44358;SDS011;30077;52.474;13.326;2023-04-19T05:45:16;10.45;;;4.05;;
44358;SDS011;30077;52.474;13.326;2023-04-19T05:50:20;7.93;;;3.58;;
44358;SDS011;30077;52.474;13.326;2023-04-19T05:55:21;7.80;;;4.35;;
44358;SDS011;30077;52.474;13.326;2023-04-19T06:00:22;8.45;;;4.05;;
44358;SDS011;30077;52.474;13.326;2023-04-19T06:05:23;6.55;;;3.90;;
44358;SDS011;30077;52.474;13.326;2023-04-19T06:10:24;15.80;;;3.88;;
44358;SDS011;30077;52.474;13.326;2023-04-19T06:15:24;7.90;;;4.35;;
44358;SDS011;30077;52.474;13.326;2023-04-19T06:20:26;8.85;;;3.90;;
44358;SDS011;30077;52.474;13.326;2023-04-19T06:25:26;8.25;;;3.38;;
44358;SDS011;30077;52.474;13.326;2023-04-19T06:30:27;8.57;;;3.28;;
44358;SDS011;30077;52.474;13.326;2023-04-19T06:35:28;10.15;;;3.20;;
44358;SDS011;30077;52.474;13.326;2023-04-19T06:40:31;12.27;;;3.35;;
44358;SDS011;30077;52.474;13.326;2023-04-19T06:45:31;8.80;;;3.55;;
44358;SDS011;30077;52.474;13.326;2023-04-19T06:50:32;11.20;;;3.72;;
44358;SDS011;30077;52.474;13.326;2023-04-19T06:55:33;9.45;;;3.55;;
44358;SDS011;30077;52.474;13.326;2023-04-19T07:00:33;7.45;;;3.20;;
44358;SDS011;30077;52.474;13.326;2023-04-19T07:05:35;9.32;;;3.50;;
44358;SDS011;30077;52.474;13.326;2023-04-19T07:10:35;4.57;;;2.70;;
44358;SDS011;30077;52.474;13.326;2023-04-19T07:15:36;11.98;;;3.55;;
44358;SDS011;30077;52.474;13.326;2023-04-19T07:20:38;4.53;;;2.38;;
44358;SDS011;30077;52.474;13.326;2023-04-19T07:25:43;9.45;;;2.78;;
44358;SDS011;30077;52.474;13.326;2023-04-19T07:30:44;5.15;;;2.65;;
44358;SDS011;30077;52.474;13.326;2023-04-19T07:35:45;7.78;;;3.20;;
44358;SDS011;30077;52.474;13.326;2023-04-19T07:40:46;8.75;;;2.80;;
44358;SDS011;30077;52.474;13.326;2023-04-19T07:45:47;7.72;;;2.83;;
44358;SDS011;30077;52.474;13.326;2023-04-19T07:50:47;8.50;;;3.05;;
44358;SDS011;30077;52.474;13.326;2023-04-19T07:55:48;5.47;;;3.10;;
44358;SDS011;30077;52.474;13.326;2023-04-19T08:00:49;7.38;;;2.65;;
44358;SDS011;30077;52.474;13.326;2023-04-19T08:05:49;5.40;;;2.65;;
44358;SDS011;30077;52.474;13.326;2023-04-19T08:10:51;6.05;;;3.05;;
44358;SDS011;30077;52.474;13.326;2023-04-19T08:15:54;10.93;;;2.95;;
44358;SDS011;30077;52.474;13.326;2023-04-19T08:20:54;4.78;;;2.95;;
44358;SDS011;30077;52.474;13.326;2023-04-19T08:25:55;13.23;;;3.78;;
44358;SDS011;30077;52.474;13.326;2023-04-19T08:30:57;8.05;;;3.70;;
44358;SDS011;30077;52.474;13.326;2023-04-19T08:40:59;9.13;;;3.47;;
44358;SDS011;30077;52.474;13.326;2023-04-19T08:46:00;11.07;;;3.50;;
44358;SDS011;30077;52.474;13.326;2023-04-19T08:56:03;9.95;;;3.47;;
44358;SDS011;30077;52.474;13.326;2023-04-19T09:01:07;10.43;;;3.92;;
44358;SDS011;30077;52.474;13.326;2023-04-19T09:06:07;5.70;;;3.53;;
44358;SDS011;30077;52.474;13.326;2023-04-19T09:11:08;9.45;;;4.05;;
44358;SDS011;30077;52.474;13.326;2023-04-19T09:16:24;11.05;;;4.25;;
44358;SDS011;30077;52.474;13.326;2023-04-19T09:21:28;12.48;;;3.60;;
44358;SDS011;30077;52.474;13.326;2023-04-19T09:26:30;6.70;;;3.40;;
44358;SDS011;30077;52.474;13.326;2023-04-19T09:31:32;11.10;;;3.85;;
44358;SDS011;30077;52.474;13.326;2023-04-19T09:36:35;7.80;;;4.10;;
44358;SDS011;30077;52.474;13.326;2023-04-19T09:41:51;5.50;;;3.47;;
44358;SDS011;30077;52.474;13.326;2023-04-19T09:46:52;8.45;;;3.55;;
44358;SDS011;30077;52.474;13.326;2023-04-19T09:51:55;11.30;;;4.18;;
44358;SDS011;30077;52.474;13.326;2023-04-19T09:56:56;15.18;;;5.03;;
44358;SDS011;30077;52.474;13.326;2023-04-19T10:01:58;9.73;;;3.88;;
44358;SDS011;30077;52.474;13.326;2023-04-19T10:07:00;7.75;;;4.22;;
44358;SDS011;30077;52.474;13.326;2023-04-19T10:12:01;12.02;;;4.20;;
44358;SDS011;30077;52.474;13.326;2023-04-19T10:17:03;5.38;;;3.47;;
44358;SDS011;30077;52.474;13.326;2023-04-19T10:22:04;10.90;;;5.28;;
44358;SDS011;30077;52.474;13.326;2023-04-19T10:27:10;10.43;;;4.00;;
44358;SDS011;30077;52.474;13.326;2023-04-19T10:32:12;6.97;;;4.30;;
44358;SDS011;30077;52.474;13.326;2023-04-19T10:37:13;8.95;;;4.40;;
44358;SDS011;30077;52.474;13.326;2023-04-19T10:42:14;11.20;;;4.28;;
44358;SDS011;30077;52.474;13.326;2023-04-19T10:47:39;12.07;;;4.22;;
44358;SDS011;30077;52.474;13.326;2023-04-19T10:52:45;9.85;;;4.60;;
44358;SDS011;30077;52.474;13.326;2023-04-19T10:58:01;10.75;;;4.70;;
44358;SDS011;30077;52.474;13.326;2023-04-19T11:08:43;8.85;;;4.50;;
44358;SDS011;30077;52.474;13.326;2023-04-19T11:13:46;11.75;;;4.80;;
44358;SDS011;30077;52.474;13.326;2023-04-19T11:18:47;13.88;;;4.07;;
44358;SDS011;30077;52.474;13.326;2023-04-19T11:23:47;12.75;;;4.50;;
44358;SDS011;30077;52.474;13.326;2023-04-19T11:28:49;8.43;;;4.40;;
44358;SDS011;30077;52.474;13.326;2023-04-19T11:33:49;9.07;;;4.03;;
44358;SDS011;30077;52.474;13.326;2023-04-19T11:38:51;7.63;;;4.72;;
44358;SDS011;30077;52.474;13.326;2023-04-19T11:43:53;8.67;;;4.60;;
44358;SDS011;30077;52.474;13.326;2023-04-19T11:48:54;8.68;;;3.83;;
44358;SDS011;30077;52.474;13.326;2023-04-19T11:53:55;7.22;;;3.70;;
44358;SDS011;30077;52.474;13.326;2023-04-19T11:58:56;7.88;;;4.10;;
44358;SDS011;30077;52.474;13.326;2023-04-19T12:03:57;8.55;;;4.07;;
44358;SDS011;30077;52.474;13.326;2023-04-19T12:08:57;10.82;;;4.22;;
44358;SDS011;30077;52.474;13.326;2023-04-19T12:14:08;11.40;;;3.63;;
44358;SDS011;30077;52.474;13.326;2023-04-19T12:19:10;7.78;;;4.20;;
44358;SDS011;30077;52.474;13.326;2023-04-19T12:24:17;11.68;;;4.30;;
44358;SDS011;30077;52.474;13.326;2023-04-19T12:29:17;11.05;;;4.15;;
44358;SDS011;30077;52.474;13.326;2023-04-19T12:34:18;8.02;;;4.40;;
44358;SDS011;30077;52.474;13.326;2023-04-19T12:39:19;8.57;;;3.67;;
44358;SDS011;30077;52.474;13.326;2023-04-19T12:44:20;8.93;;;4.68;;
44358;SDS011;30077;52.474;13.326;2023-04-19T12:49:21;7.45;;;4.28;;
44358;SDS011;30077;52.474;13.326;2023-04-19T12:54:22;10.00;;;4.68;;
44358;SDS011;30077;52.474;13.326;2023-04-19T12:59:22;9.00;;;4.63;;
44358;SDS011;30077;52.474;13.326;2023-04-19T13:04:23;11.93;;;5.65;;
44358;SDS011;30077;52.474;13.326;2023-04-19T13:09:26;11.35;;;4.90;;
44358;SDS011;30077;52.474;13.326;2023-04-19T13:19:28;12.73;;;5.72;;
44358;SDS011;30077;52.474;13.326;2023-04-19T13:24:28;9.02;;;5.28;;
44358;SDS011;30077;52.474;13.326;2023-04-19T13:29:29;9.80;;;4.78;;
44358;SDS011;30077;52.474;13.326;2023-04-19T13:34:30;9.48;;;5.07;;
44358;SDS011;30077;52.474;13.326;2023-04-19T13:39:30;10.27;;;5.00;;
44358;SDS011;30077;52.474;13.326;2023-04-19T13:44:31;11.82;;;5.28;;
44358;SDS011;30077;52.474;13.326;2023-04-19T13:49:32;10.60;;;4.30;;
44358;SDS011;30077;52.474;13.326;2023-04-19T13:54:33;9.40;;;4.65;;
44358;SDS011;30077;52.474;13.326;2023-04-19T13:59:33;11.65;;;4.68;;
44358;SDS011;30077;52.474;13.326;2023-04-19T14:04:34;7.97;;;4.30;;
44358;SDS011;30077;52.474;13.326;2023-04-19T14:09:35;19.88;;;4.95;;
44358;SDS011;30077;52.474;13.326;2023-04-19T14:14:35;8.35;;;4.25;;
44358;SDS011;30077;52.474;13.326;2023-04-19T14:19:36;12.15;;;4.28;;
44358;SDS011;30077;52.474;13.326;2023-04-19T14:24:37;11.85;;;4.95;;
44358;SDS011;30077;52.474;13.326;2023-04-19T14:29:37;10.48;;;5.20;;
44358;SDS011;30077;52.474;13.326;2023-04-19T14:34:38;10.57;;;4.43;;
44358;SDS011;30077;52.474;13.326;2023-04-19T14:39:39;8.48;;;4.80;;
44358;SDS011;30077;52.474;13.326;2023-04-19T14:44:40;10.55;;;5.00;;
44358;SDS011;30077;52.474;13.326;2023-04-19T14:49:40;8.75;;;4.70;;
44358;SDS011;30077;52.474;13.326;2023-04-19T14:54:41;9.75;;;5.13;;
44358;SDS011;30077;52.474;13.326;2023-04-19T14:59:42;14.73;;;5.47;;
44358;SDS011;30077;52.474;13.326;2023-04-19T15:04:42;10.15;;;5.97;;
44358;SDS011;30077;52.474;13.326;2023-04-19T15:09:43;12.35;;;5.70;;
44358;SDS011;30077;52.474;13.326;2023-04-19T15:14:44;10.98;;;6.40;;
44358;SDS011;30077;52.474;13.326;2023-04-19T15:19:44;15.20;;;6.80;;
44358;SDS011;30077;52.474;13.326;2023-04-19T15:24:45;18.13;;;7.25;;
44358;SDS011;30077;52.474;13.326;2023-04-19T15:29:46;16.70;;;7.07;;
44358;SDS011;30077;52.474;13.326;2023-04-19T15:34:47;18.10;;;8.75;;
44358;SDS011;30077;52.474;13.326;2023-04-19T15:39:47;19.08;;;9.73;;
44358;SDS011;30077;52.474;13.326;2023-04-19T15:44:49;18.33;;;8.32;;
44358;SDS011;30077;52.474;13.326;2023-04-19T15:49:49;20.80;;;9.95;;
44358;SDS011;30077;52.474;13.326;2023-04-19T15:54:51;26.47;;;10.97;;
44358;SDS011;30077;52.474;13.326;2023-04-19T15:59:52;21.63;;;10.48;;
44358;SDS011;30077;52.474;13.326;2023-04-19T16:04:53;22.17;;;12.48;;
44358;SDS011;30077;52.474;13.326;2023-04-19T16:09:53;26.25;;;12.50;;
44358;SDS011;30077;52.474;13.326;2023-04-19T16:14:54;32.95;;;12.63;;
44358;SDS011;30077;52.474;13.326;2023-04-19T16:19:56;29.23;;;12.80;;
44358;SDS011;30077;52.474;13.326;2023-04-19T16:24:57;12.35;;;8.05;;
44358;SDS011;30077;52.474;13.326;2023-04-19T16:29:57;30.48;;;14.10;;
44358;SDS011;30077;52.474;13.326;2023-04-19T16:34:58;28.17;;;11.23;;
44358;SDS011;30077;52.474;13.326;2023-04-19T16:40:05;22.63;;;10.88;;
44358;SDS011;30077;52.474;13.326;2023-04-19T16:45:08;21.13;;;10.35;;
44358;SDS011;30077;52.474;13.326;2023-04-19T16:50:09;27.67;;;10.57;;
44358;SDS011;30077;52.474;13.326;2023-04-19T16:55:09;23.00;;;9.32;;
44358;SDS011;30077;52.474;13.326;2023-04-19T17:00:10;25.40;;;10.98;;
44358;SDS011;30077;52.474;13.326;2023-04-19T17:05:12;22.67;;;10.77;;
44358;SDS011;30077;52.474;13.326;2023-04-19T17:10:15;23.30;;;11.63;;
44358;SDS011;30077;52.474;13.326;2023-04-19T17:15:17;23.52;;;11.68;;
44358;SDS011;30077;52.474;13.326;2023-04-19T17:20:18;23.60;;;11.45;;
44358;SDS011;30077;52.474;13.326;2023-04-19T17:25:19;27.60;;;12.55;;
44358;SDS011;30077;52.474;13.326;2023-04-19T17:30:20;26.98;;;13.23;;
44358;SDS011;30077;52.474;13.326;2023-04-19T17:35:20;29.10;;;12.13;;
44358;SDS011;30077;52.474;13.326;2023-04-19T17:40:21;18.42;;;11.18;;
44358;SDS011;30077;52.474;13.326;2023-04-19T17:45:22;20.85;;;10.50;;
44358;SDS011;30077;52.474;13.326;2023-04-19T17:50:23;19.13;;;10.67;;
44358;SDS011;30077;52.474;13.326;2023-04-19T17:55:25;23.63;;;11.55;;
44358;SDS011;30077;52.474;13.326;2023-04-19T18:00:26;17.90;;;10.82;;
44358;SDS011;30077;52.474;13.326;2023-04-19T18:05:26;23.95;;;11.18;;
44358;SDS011;30077;52.474;13.326;2023-04-19T18:10:27;20.90;;;11.40;;
44358;SDS011;30077;52.474;13.326;2023-04-19T18:15:28;17.70;;;11.13;;
44358;SDS011;30077;52.474;13.326;2023-04-19T18:20:29;19.92;;;11.82;;
44358;SDS011;30077;52.474;13.326;2023-04-19T18:25:30;18.15;;;11.18;;
44358;SDS011;30077;52.474;13.326;2023-04-19T18:30:34;18.35;;;11.40;;
44358;SDS011;30077;52.474;13.326;2023-04-19T18:35:35;22.02;;;12.63;;
44358;SDS011;30077;52.474;13.326;2023-04-19T18:40:35;16.83;;;11.50;;
44358;SDS011;30077;52.474;13.326;2023-04-19T18:45:36;24.85;;;12.40;;
44358;SDS011;30077;52.474;13.326;2023-04-19T18:50:37;22.40;;;12.65;;
44358;SDS011;30077;52.474;13.326;2023-04-19T18:55:37;24.00;;;14.13;;
44358;SDS011;30077;52.474;13.326;2023-04-19T19:00:38;27.83;;;15.02;;
44358;SDS011;30077;52.474;13.326;2023-04-19T19:05:39;24.73;;;15.02;;
44358;SDS011;30077;52.474;13.326;2023-04-19T19:10:39;25.42;;;15.43;;
44358;SDS011;30077;52.474;13.326;2023-04-19T19:15:40;26.52;;;15.82;;
44358;SDS011;30077;52.474;13.326;2023-04-19T19:20:42;26.55;;;16.08;;
44358;SDS011;30077;52.474;13.326;2023-04-19T19:25:43;28.65;;;16.85;;
44358;SDS011;30077;52.474;13.326;2023-04-19T19:30:43;29.25;;;16.55;;
44358;SDS011;30077;52.474;13.326;2023-04-19T19:35:45;27.52;;;17.00;;
44358;SDS011;30077;52.474;13.326;2023-04-19T19:40:46;26.67;;;16.30;;
44358;SDS011;30077;52.474;13.326;2023-04-19T19:45:47;30.92;;;16.55;;
44358;SDS011;30077;52.474;13.326;2023-04-19T19:50:47;28.35;;;17.95;;
44358;SDS011;30077;52.474;13.326;2023-04-19T19:55:48;32.75;;;19.55;;
44358;SDS011;30077;52.474;13.326;2023-04-19T20:00:49;34.05;;;19.40;;
44358;SDS011;30077;52.474;13.326;2023-04-19T20:05:49;33.95;;;19.92;;
44358;SDS011;30077;52.474;13.326;2023-04-19T20:10:53;30.20;;;20.55;;
44358;SDS011;30077;52.474;13.326;2023-04-19T20:15:54;31.95;;;19.00;;
44358;SDS011;30077;52.474;13.326;2023-04-19T20:20:57;36.75;;;21.83;;
44358;SDS011;30077;52.474;13.326;2023-04-19T20:25:58;34.58;;;21.23;;
44358;SDS011;30077;52.474;13.326;2023-04-19T20:31:00;33.13;;;22.00;;
44358;SDS011;30077;52.474;13.326;2023-04-19T20:36:00;34.17;;;22.40;;
44358;SDS011;30077;52.474;13.326;2023-04-19T20:41:03;34.33;;;21.70;;
44358;SDS011;30077;52.474;13.326;2023-04-19T20:46:03;38.15;;;21.42;;
44358;SDS011;30077;52.474;13.326;2023-04-19T20:51:05;34.63;;;20.67;;
44358;SDS011;30077;52.474;13.326;2023-04-19T20:56:06;32.33;;;21.08;;
44358;SDS011;30077;52.474;13.326;2023-04-19T21:01:07;37.40;;;21.02;;
44358;SDS011;30077;52.474;13.326;2023-04-19T21:06:10;34.83;;;20.52;;
44358;SDS011;30077;52.474;13.326;2023-04-19T21:11:11;33.75;;;20.30;;
44358;SDS011;30077;52.474;13.326;2023-04-19T21:16:12;32.53;;;20.48;;
44358;SDS011;30077;52.474;13.326;2023-04-19T21:21:12;31.67;;;20.52;;
44358;SDS011;30077;52.474;13.326;2023-04-19T21:26:13;30.63;;;19.23;;
44358;SDS011;30077;52.474;13.326;2023-04-19T21:31:14;32.25;;;19.20;;
44358;SDS011;30077;52.474;13.326;2023-04-19T21:36:14;27.90;;;17.65;;
44358;SDS011;30077;52.474;13.326;2023-04-19T21:41:15;31.00;;;17.92;;
44358;SDS011;30077;52.474;13.326;2023-04-19T21:46:16;33.83;;;18.77;;
44358;SDS011;30077;52.474;13.326;2023-04-19T21:51:16;28.65;;;18.05;;
44358;SDS011;30077;52.474;13.326;2023-04-19T21:56:17;30.90;;;17.85;;
44358;SDS011;30077;52.474;13.326;2023-04-19T22:01:18;29.90;;;18.88;;
44358;SDS011;30077;52.474;13.326;2023-04-19T22:06:18;29.67;;;17.60;;
44358;SDS011;30077;52.474;13.326;2023-04-19T22:11:20;31.27;;;17.75;;
44358;SDS011;30077;52.474;13.326;2023-04-19T22:16:21;30.00;;;17.33;;
44358;SDS011;30077;52.474;13.326;2023-04-19T22:21:22;33.90;;;18.90;;
44358;SDS011;30077;52.474;13.326;2023-04-19T22:26:24;27.15;;;17.15;;
44358;SDS011;30077;52.474;13.326;2023-04-19T22:31:25;29.83;;;18.27;;
44358;SDS011;30077;52.474;13.326;2023-04-19T22:36:26;30.45;;;17.58;;
44358;SDS011;30077;52.474;13.326;2023-04-19T22:41:27;27.77;;;16.42;;
44358;SDS011;30077;52.474;13.326;2023-04-19T22:46:27;26.50;;;16.20;;
44358;SDS011;30077;52.474;13.326;2023-04-19T22:51:28;25.70;;;15.18;;
44358;SDS011;30077;52.474;13.326;2023-04-19T22:56:29;29.88;;;17.67;;
44358;SDS011;30077;52.474;13.326;2023-04-19T23:01:29;21.38;;;14.27;;
44358;SDS011;30077;52.474;13.326;2023-04-19T23:06:30;26.17;;;15.35;;
44358;SDS011;30077;52.474;13.326;2023-04-19T23:11:31;23.15;;;15.60;;
44358;SDS011;30077;52.474;13.326;2023-04-19T23:16:33;27.30;;;15.00;;
44358;SDS011;30077;52.474;13.326;2023-04-19T23:21:34;24.58;;;15.27;;
44358;SDS011;30077;52.474;13.326;2023-04-19T23:26:35;23.83;;;14.32;;
44358;SDS011;30077;52.474;13.326;2023-04-19T23:31:35;22.73;;;14.73;;
44358;SDS011;30077;52.474;13.326;2023-04-19T23:36:36;25.45;;;15.23;;
44358;SDS011;30077;52.474;13.326;2023-04-19T23:41:37;24.50;;;14.80;;
44358;SDS011;30077;52.474;13.326;2023-04-19T23:46:38;21.30;;;13.93;;
44358;SDS011;30077;52.474;13.326;2023-04-19T23:51:38;23.52;;;14.80;;
44358;SDS011;30077;52.474;13.326;2023-04-19T23:56:39;21.08;;;13.80;;
